Time;durP1;ratioP1;P1;durP2;ratioP2;P2;SDS_P1;SDS_P2;PMS_P1;PMS_P2;Temp;Humidity;BMP_temperature;BMP_pressure;BME280_temperature;BME280_humidity;BME280_pressure;Samples;Min_cycle;Max_cycle;Signal;HPM_P1;HPM_P2
2022/03/17 00:00:32;;;;;;;;;;;21.60;34.80;;;;;;5055583;28;19909;-60
2022/03/17 00:02:58;;;;;;;;;;;21.70;34.90;;;;;;5056819;28;20022;-59
2022/03/17 00:05:25;;;;;;;;;;;21.70;34.90;;;;;;5053273;28;19940;-60
2022/03/17 00:07:51;;;;;;;;;;;21.60;34.80;;;;;;5050385;28;20400;-59
2022/03/17 00:10:17;;;;;;;;;;;21.60;34.80;;;;;;5038034;28;19916;-56
2022/03/17 00:12:44;;;;;;;;;;;21.60;34.80;;;;;;5055222;28;19909;-60
2022/03/17 00:15:10;;;;;;;;;;;21.60;34.80;;;;;;5054681;28;20311;-59
2022/03/17 00:17:36;;;;;;;;;;;21.60;34.80;;;;;;5054599;28;19920;-59
2022/03/17 00:20:02;;;;;;;;;;;21.60;34.80;;;;;;5055850;28;19913;-60
2022/03/17 00:22:28;;;;;;;;;;;21.60;34.80;;;;;;5055668;28;20338;-58
2022/03/17 00:24:54;;;;;;;;;;;21.60;34.80;;;;;;5054477;28;20343;-60
2022/03/17 00:27:20;;;;;;;;;;;21.70;34.90;;;;;;5051814;28;20332;-55
2022/03/17 00:29:46;;;;;;;;;;;21.60;34.80;;;;;;5037991;28;19924;-59
2022/03/17 00:32:12;;;;;;;;;;;21.60;34.90;;;;;;5037574;28;19912;-60
2022/03/17 00:35:35;;;;;;;;;;;21.60;34.90;;;;;;5053386;28;20172;-57
2022/03/17 00:37:24;;;;;;;;;;;21.60;34.90;;;;;;5054094;28;19932;-58
2022/03/17 00:39:51;;;;;;;;;;;21.60;34.90;;;;;;5053958;28;19909;-55
2022/03/17 00:42:17;;;;;;;;;;;21.60;34.90;;;;;;5037535;28;19909;-59
2022/03/17 00:44:43;;;;;;;;;;;21.60;34.90;;;;;;5036298;28;19909;-59
2022/03/17 00:47:08;;;;;;;;;;;21.60;34.90;;;;;;5053496;28;19921;-57
2022/03/17 00:49:34;;;;;;;;;;;21.60;34.90;;;;;;5055406;28;19920;-58
2022/03/17 00:52:00;;;;;;;;;;;21.60;34.90;;;;;;5055028;28;19915;-57
2022/03/17 00:54:26;;;;;;;;;;;21.50;34.90;;;;;;5054650;28;19908;-60
2022/03/17 00:56:53;;;;;;;;;;;21.50;34.90;;;;;;5054924;28;19986;-61
2022/03/17 00:59:20;;;;;;;;;;;21.60;35.00;;;;;;5052846;28;20344;-58
2022/03/17 01:01:45;;;;;;;;;;;21.50;34.90;;;;;;5053955;28;19909;-59
2022/03/17 01:04:11;;;;;;;;;;;21.60;35.00;;;;;;5054856;28;19924;-60
2022/03/17 01:06:37;;;;;;;;;;;21.50;34.90;;;;;;5054781;28;19940;-60
2022/03/17 01:09:03;;;;;;;;;;;21.50;34.90;;;;;;5052717;28;20017;-58
2022/03/17 01:11:28;;;;;;;;;;;21.50;35.00;;;;;;5052197;28;19915;-59
2022/03/17 01:13:54;;;;;;;;;;;21.50;35.00;;;;;;5054326;28;19913;-58
2022/03/17 01:16:20;;;;;;;;;;;21.50;35.00;;;;;;5054838;28;19920;-59
2022/03/17 01:18:45;;;;;;;;;;;21.50;35.00;;;;;;5053917;28;20399;-60
2022/03/17 01:21:11;;;;;;;;;;;21.50;35.00;;;;;;5054469;28;19934;-61
2022/03/17 01:23:37;;;;;;;;;;;21.50;35.00;;;;;;5051271;28;19934;-59
2022/03/17 01:26:02;;;;;;;;;;;21.50;35.00;;;;;;5052905;28;19913;-59
2022/03/17 01:28:28;;;;;;;;;;;21.50;35.00;;;;;;5053209;28;19909;-59
2022/03/17 01:30:54;;;;;;;;;;;21.50;35.00;;;;;;5052336;28;20271;-60
2022/03/17 01:33:20;;;;;;;;;;;21.50;35.00;;;;;;5052614;28;19971;-58
2022/03/17 01:35:45;;;;;;;;;;;21.50;35.00;;;;;;5054582;28;19909;-58
2022/03/17 01:38:11;;;;;;;;;;;21.50;35.00;;;;;;5054065;28;20312;-60
2022/03/17 01:40:37;;;;;;;;;;;21.50;35.00;;;;;;5054423;28;19908;-61
2022/03/17 01:43:03;;;;;;;;;;;21.50;35.00;;;;;;5051231;28;19909;-58
2022/03/17 01:45:28;;;;;;;;;;;21.50;35.00;;;;;;5053660;28;19920;-59
2022/03/17 01:47:54;;;;;;;;;;;21.50;35.10;;;;;;5053757;28;19995;-57
2022/03/17 01:50:20;;;;;;;;;;;21.50;35.10;;;;;;5053880;28;19909;-58
2022/03/17 01:52:46;;;;;;;;;;;21.50;35.10;;;;;;5052910;28;19920;-59
2022/03/17 01:55:12;;;;;;;;;;;21.50;35.10;;;;;;5052965;28;19912;-57
2022/03/17 01:57:39;;;;;;;;;;;21.40;35.70;;;;;;5054266;28;20382;-59
2022/03/17 02:00:06;;;;;;;;;;;21.50;35.10;;;;;;5052854;28;19919;-59
2022/03/17 02:02:39;;;;;;;;;;;21.50;35.10;;;;;;5051208;28;19919;-57
2022/03/17 02:05:05;;;;;;;;;;;21.50;35.10;;;;;;5049999;28;19924;-60
2022/03/17 02:07:31;;;;;;;;;;;21.50;35.10;;;;;;5054000;28;19978;-58
2022/03/17 02:09:57;;;;;;;;;;;21.50;35.20;;;;;;5051557;28;20250;-59
2022/03/17 02:15:08;;;;;;;;;;;21.40;35.20;;;;;;5052272;28;19908;-60
2022/03/17 02:17:39;;;;;;;;;;;21.40;35.20;;;;;;5053908;28;20332;-58
2022/03/17 02:20:06;;;;;;;;;;;21.40;35.30;;;;;;5031542;28;19963;-59
2022/03/17 02:22:31;;;;;;;;;;;21.40;35.30;;;;;;5050699;28;19909;-57
2022/03/17 02:27:46;;;;;;;;;;;21.40;35.30;;;;;;5053933;28;20347;-59
2022/03/17 02:30:12;;;;;;;;;;;21.40;35.30;;;;;;5045728;28;19971;-57
2022/03/17 02:32:38;;;;;;;;;;;21.40;35.30;;;;;;5052690;28;19909;-59
2022/03/17 02:35:05;;;;;;;;;;;21.40;35.30;;;;;;5052702;28;19908;-59
2022/03/17 02:37:31;;;;;;;;;;;21.40;35.30;;;;;;5054047;28;19932;-60
2022/03/17 02:39:58;;;;;;;;;;;21.40;36.00;;;;;;5050184;28;19908;-59
2022/03/17 02:42:24;;;;;;;;;;;21.40;35.30;;;;;;5054188;28;19999;-60
2022/03/17 02:44:50;;;;;;;;;;;21.40;35.30;;;;;;5034541;28;20320;-58
2022/03/17 02:47:15;;;;;;;;;;;21.40;35.30;;;;;;5053701;28;19957;-58
2022/03/17 02:49:41;;;;;;;;;;;21.40;35.30;;;;;;5051671;28;19913;-59
2022/03/17 02:52:07;;;;;;;;;;;21.40;35.40;;;;;;5054169;28;20239;-59
2022/03/17 02:54:33;;;;;;;;;;;21.40;35.40;;;;;;5052102;28;19920;-61
2022/03/17 02:56:59;;;;;;;;;;;21.40;35.40;;;;;;5053728;28;20316;-59
2022/03/17 02:59:24;;;;;;;;;;;21.40;35.40;;;;;;5048097;28;20213;-59
2022/03/17 03:01:50;;;;;;;;;;;21.40;35.40;;;;;;5035751;28;19948;-61
2022/03/17 03:04:16;;;;;;;;;;;21.40;35.40;;;;;;5052485;28;20323;-59
2022/03/17 03:06:45;;;;;;;;;;;21.40;35.50;;;;;;5053125;28;19927;-61
2022/03/17 03:09:12;;;;;;;;;;;21.40;35.50;;;;;;5052017;28;19921;-58
2022/03/17 03:11:38;;;;;;;;;;;21.40;35.50;;;;;;5052722;28;20015;-57
2022/03/17 03:14:06;;;;;;;;;;;21.40;35.50;;;;;;5049385;28;19952;-60
2022/03/17 03:16:31;;;;;;;;;;;21.40;35.60;;;;;;5053377;28;19923;-57
2022/03/17 03:18:57;;;;;;;;;;;21.40;35.60;;;;;;5050930;28;19916;-58
2022/03/17 03:21:23;;;;;;;;;;;21.40;35.60;;;;;;5050298;28;19920;-58
2022/03/17 03:23:48;;;;;;;;;;;21.40;35.60;;;;;;5052094;28;19989;-60
2022/03/17 03:26:14;;;;;;;;;;;21.40;35.70;;;;;;5053000;28;20142;-58
2022/03/17 03:28:40;;;;;;;;;;;21.40;35.70;;;;;;5043848;28;19917;-60
2022/03/17 03:31:06;;;;;;;;;;;21.40;35.70;;;;;;5052499;28;19909;-60
2022/03/17 03:33:32;;;;;;;;;;;21.40;35.80;;;;;;5052344;28;19974;-59
2022/03/17 03:38:42;;;;;;;;;;;21.40;35.90;;;;;;5050439;28;20085;-61
2022/03/17 03:41:08;;;;;;;;;;;21.30;35.90;;;;;;5052344;28;19916;-59
2022/03/17 03:43:33;;;;;;;;;;;21.40;36.00;;;;;;5052536;28;20356;-60
2022/03/17 03:45:59;;;;;;;;;;;21.30;36.00;;;;;;5052693;28;19909;-58
2022/03/17 03:48:25;;;;;;;;;;;21.40;36.20;;;;;;5047879;28;20323;-60
2022/03/17 03:50:51;;;;;;;;;;;21.30;36.10;;;;;;5051490;28;19912;-56
2022/03/17 03:53:17;;;;;;;;;;;21.30;36.20;;;;;;5052607;28;20316;-59
2022/03/17 03:55:42;;;;;;;;;;;21.30;36.30;;;;;;5053064;28;20297;-58
2022/03/17 03:58:08;;;;;;;;;;;21.30;36.40;;;;;;5051513;28;20515;-60
2022/03/17 04:00:34;;;;;;;;;;;21.30;36.40;;;;;;5052854;28;19909;-59
2022/03/17 04:03:00;;;;;;;;;;;21.30;36.50;;;;;;5050473;28;19956;-59
2022/03/17 04:05:31;;;;;;;;;;;21.30;36.60;;;;;;5050418;28;19909;-59
2022/03/17 04:07:57;;;;;;;;;;;21.30;36.70;;;;;;5047335;28;19932;-57
2022/03/17 04:10:24;;;;;;;;;;;21.30;36.70;;;;;;5049861;28;19921;-60
2022/03/17 04:12:49;;;;;;;;;;;21.30;36.80;;;;;;5052128;28;19909;-60
2022/03/17 04:15:15;;;;;;;;;;;21.30;36.80;;;;;;5052451;28;19908;-59
2022/03/17 04:17:41;;;;;;;;;;;21.30;36.80;;;;;;5052497;28;19921;-59
2022/03/17 04:20:08;;;;;;;;;;;21.30;36.90;;;;;;5056694;28;20038;-60
2022/03/17 04:22:33;;;;;;;;;;;21.30;36.90;;;;;;5053606;28;19919;-60
2022/03/17 04:24:59;;;;;;;;;;;21.30;37.00;;;;;;5055836;28;19910;-60
2022/03/17 04:27:25;;;;;;;;;;;21.30;37.00;;;;;;5053377;28;19919;-59
2022/03/17 04:29:50;;;;;;;;;;;21.30;37.00;;;;;;5053048;28;20005;-59
2022/03/17 04:32:16;;;;;;;;;;;21.30;37.10;;;;;;5055995;28;20296;-59
2022/03/17 04:34:42;;;;;;;;;;;21.30;37.10;;;;;;5055784;28;19919;-56
2022/03/17 04:37:08;;;;;;;;;;;21.20;37.00;;;;;;5055880;28;19919;-59
2022/03/17 04:39:33;;;;;;;;;;;21.30;37.10;;;;;;5053868;28;19916;-60
2022/03/17 04:41:59;;;;;;;;;;;21.20;37.00;;;;;;5055530;28;19908;-55
2022/03/17 04:44:25;;;;;;;;;;;21.20;37.00;;;;;;5054084;28;19919;-58
2022/03/17 04:46:50;;;;;;;;;;;21.20;37.00;;;;;;5056044;28;19912;-59
2022/03/17 04:49:16;;;;;;;;;;;21.20;37.00;;;;;;5054117;28;19936;-58
2022/03/17 04:51:42;;;;;;;;;;;21.20;37.00;;;;;;5037360;28;19908;-59
2022/03/17 04:54:08;;;;;;;;;;;21.20;37.00;;;;;;5054114;28;19975;-59
2022/03/17 04:56:33;;;;;;;;;;;21.20;37.00;;;;;;5055337;28;20019;-59
2022/03/17 04:58:59;;;;;;;;;;;21.20;37.00;;;;;;5053403;28;19959;-59
2022/03/17 05:01:25;;;;;;;;;;;21.20;37.10;;;;;;5055432;28;19909;-60
2022/03/17 05:03:51;;;;;;;;;;;21.20;37.00;;;;;;5053770;28;19909;-60
2022/03/17 05:06:16;;;;;;;;;;;21.20;36.90;;;;;;5053752;28;19944;-60
2022/03/17 05:08:42;;;;;;;;;;;21.30;37.00;;;;;;5053291;28;20244;-58
2022/03/17 05:11:10;;;;;;;;;;;21.30;36.90;;;;;;5054616;28;20732;-59
2022/03/17 05:13:37;;;;;;;;;;;21.30;36.80;;;;;;5052674;28;19908;-58
2022/03/17 05:16:04;;;;;;;;;;;21.30;36.80;;;;;;5055312;28;20285;-59
2022/03/17 05:18:30;;;;;;;;;;;21.40;36.80;;;;;;5054155;28;19917;-56
2022/03/17 05:20:56;;;;;;;;;;;21.40;36.80;;;;;;5051523;28;20336;-59
2022/03/17 05:23:22;;;;;;;;;;;21.40;36.80;;;;;;5054041;28;19924;-57
2022/03/17 05:25:48;;;;;;;;;;;21.40;36.70;;;;;;5055126;28;19931;-59
2022/03/17 05:28:14;;;;;;;;;;;21.40;36.70;;;;;;5052299;28;19948;-56
2022/03/17 05:30:41;;;;;;;;;;;21.40;36.70;;;;;;5054983;28;20311;-57
2022/03/17 05:33:07;;;;;;;;;;;21.40;36.60;;;;;;5054593;28;19909;-58
2022/03/17 05:35:33;;;;;;;;;;;21.40;36.60;;;;;;5054713;28;20068;-57
2022/03/17 05:38:00;;;;;;;;;;;21.40;36.60;;;;;;5052195;28;19929;-58
2022/03/17 05:40:26;;;;;;;;;;;21.40;36.50;;;;;;5054765;28;19909;-59
2022/03/17 05:42:53;;;;;;;;;;;21.40;36.50;;;;;;5054127;28;20306;-58
2022/03/17 05:45:20;;;;;;;;;;;21.40;36.50;;;;;;5054785;28;19909;-59
2022/03/17 05:47:47;;;;;;;;;;;21.40;36.50;;;;;;5050723;28;19951;-58
2022/03/17 05:50:14;;;;;;;;;;;21.40;36.50;;;;;;5052679;28;19977;-58
2022/03/17 05:52:42;;;;;;;;;;;21.40;36.50;;;;;;5052794;28;20003;-60
2022/03/17 05:55:09;;;;;;;;;;;21.40;36.40;;;;;;5054225;28;20351;-58
2022/03/17 05:57:36;;;;;;;;;;;21.50;36.40;;;;;;5053441;28;19916;-58
2022/03/17 06:00:04;;;;;;;;;;;21.40;36.30;;;;;;5050295;28;19924;-58
2022/03/17 06:02:32;;;;;;;;;;;21.40;36.30;;;;;;5053957;28;19924;-56
2022/03/17 06:04:58;;;;;;;;;;;21.40;36.30;;;;;;5053646;28;20011;-57
2022/03/17 06:07:24;;;;;;;;;;;21.40;36.30;;;;;;5054391;28;20311;-59
2022/03/17 06:09:50;;;;;;;;;;;21.40;36.20;;;;;;5035453;28;19970;-59
2022/03/17 06:12:15;;;;;;;;;;;21.50;36.30;;;;;;5051534;28;19928;-58
2022/03/17 06:14:42;;;;;;;;;;;21.40;36.20;;;;;;5054147;28;19913;-60
2022/03/17 06:17:09;;;;;;;;;;;21.40;36.10;;;;;;5032753;28;19989;-59
2022/03/17 06:19:34;;;;;;;;;;;21.50;36.20;;;;;;5053744;28;19913;-58
2022/03/17 06:22:00;;;;;;;;;;;21.40;36.10;;;;;;5051166;28;19979;-56
2022/03/17 06:24:25;;;;;;;;;;;21.50;36.20;;;;;;5053516;28;20217;-60
2022/03/17 06:26:51;;;;;;;;;;;21.50;36.10;;;;;;5053798;28;19913;-58
2022/03/17 06:29:17;;;;;;;;;;;21.40;36.10;;;;;;5054418;28;19909;-61
2022/03/17 06:31:43;;;;;;;;;;;21.50;36.20;;;;;;5053834;28;19908;-60
2022/03/17 06:34:08;;;;;;;;;;;21.40;36.10;;;;;;5034953;28;19909;-59
2022/03/17 06:36:34;;;;;;;;;;;21.40;36.10;;;;;;5052694;28;19951;-59
2022/03/17 06:39:00;;;;;;;;;;;21.50;36.10;;;;;;5053531;28;19917;-58
2022/03/17 06:41:25;;;;;;;;;;;21.40;36.00;;;;;;5053366;28;19936;-58
2022/03/17 06:43:51;;;;;;;;;;;21.50;36.00;;;;;;5052780;28;20007;-58
2022/03/17 06:46:17;;;;;;;;;;;21.50;36.00;;;;;;5053607;28;19921;-60
2022/03/17 06:48:42;;;;;;;;;;;21.50;36.00;;;;;;5052603;28;20335;-59
2022/03/17 06:51:08;;;;;;;;;;;21.50;35.90;;;;;;5054248;28;19909;-59
2022/03/17 06:53:34;;;;;;;;;;;21.50;35.90;;;;;;5051103;28;19908;-60
2022/03/17 06:55:59;;;;;;;;;;;21.50;35.90;;;;;;5053623;28;20244;-57
2022/03/17 06:58:25;;;;;;;;;;;21.50;35.80;;;;;;5052187;28;19939;-60
2022/03/17 07:00:51;;;;;;;;;;;21.50;35.70;;;;;;5051591;28;20019;-57
2022/03/17 07:03:16;;;;;;;;;;;21.50;35.70;;;;;;5052734;28;19909;-59
2022/03/17 07:05:42;;;;;;;;;;;21.50;35.70;;;;;;5053204;28;20220;-58
2022/03/17 07:08:08;;;;;;;;;;;21.50;35.70;;;;;;5031612;28;19919;-57
2022/03/17 07:10:33;;;;;;;;;;;21.40;35.60;;;;;;5035312;28;19916;-56
2022/03/17 07:12:59;;;;;;;;;;;21.50;35.70;;;;;;5051385;28;19909;-58
2022/03/17 07:15:25;;;;;;;;;;;21.50;35.70;;;;;;5053306;28;19935;-59
2022/03/17 07:17:51;;;;;;;;;;;21.50;35.60;;;;;;5047862;28;19913;-59
2022/03/17 07:20:18;;;;;;;;;;;21.50;35.60;;;;;;5048923;28;19913;-58
2022/03/17 07:22:47;;;;;;;;;;;21.50;35.60;;;;;;5052765;28;20332;-59
2022/03/17 07:25:13;;;;;;;;;;;21.50;35.60;;;;;;5048141;28;19909;-57
2022/03/17 07:27:44;;;;;;;;;;;21.50;35.60;;;;;;5051755;28;19920;-58
2022/03/17 07:30:22;;;;;;;;;;;21.50;35.60;;;;;;5048577;28;19908;-58
2022/03/17 07:32:50;;;;;;;;;;;21.50;35.60;;;;;;5047591;28;19913;-53
2022/03/17 07:35:16;;;;;;;;;;;21.50;35.50;;;;;;5053132;28;19988;-57
2022/03/17 07:37:42;;;;;;;;;;;21.50;35.50;;;;;;5052414;28;19916;-58
2022/03/17 07:40:08;;;;;;;;;;;21.50;35.50;;;;;;5053663;28;19908;-58
2022/03/17 07:42:34;;;;;;;;;;;21.50;35.50;;;;;;5041006;28;19909;-59
2022/03/17 07:45:38;;;;;;;;;;;21.50;35.50;;;;;;5039762;28;19916;-59
2022/03/17 07:48:22;;;;;;;;;;;21.50;35.50;;;;;;5047944;28;19967;-58
2022/03/17 07:51:04;;;;;;;;;;;21.50;35.40;;;;;;5036090;28;19987;-57
2022/03/17 07:53:30;;;;;;;;;;;21.50;35.30;;;;;;5056492;28;19959;-56
2022/03/17 07:55:57;;;;;;;;;;;21.60;35.30;;;;;;5057579;28;19920;-57
2022/03/17 07:58:24;;;;;;;;;;;21.60;35.20;;;;;;5050654;28;19917;-58
2022/03/17 08:00:56;;;;;;;;;;;21.70;35.10;;;;;;5051582;28;19908;-59
2022/03/17 08:03:23;;;;;;;;;;;21.70;35.00;;;;;;5056293;28;19912;-56
2022/03/17 08:05:49;;;;;;;;;;;21.80;34.90;;;;;;5044606;28;19919;-56
2022/03/17 08:08:15;;;;;;;;;;;21.80;34.70;;;;;;5039573;28;19920;-59
2022/03/17 08:10:41;;;;;;;;;;;21.90;34.70;;;;;;5054761;28;19917;-57
2022/03/17 08:13:09;;;;;;;;;;;21.90;34.60;;;;;;5057328;28;19909;-58
2022/03/17 08:15:36;;;;;;;;;;;22.00;34.50;;;;;;5055854;28;20358;-55
2022/03/17 08:18:02;;;;;;;;;;;22.00;34.40;;;;;;5057163;28;19917;-58
2022/03/17 08:20:28;;;;;;;;;;;22.10;34.30;;;;;;5057565;28;19967;-58
2022/03/17 08:22:55;;;;;;;;;;;22.10;34.20;;;;;;5057252;28;19947;-57
2022/03/17 08:25:20;;;;;;;;;;;22.20;34.10;;;;;;5042049;28;19909;-58
2022/03/17 08:27:46;;;;;;;;;;;22.20;34.00;;;;;;5044411;28;19916;-59
2022/03/17 08:30:12;;;;;;;;;;;22.20;33.80;;;;;;5056637;28;19913;-59
2022/03/17 08:32:40;;;;;;;;;;;22.30;33.80;;;;;;5048508;28;19920;-58
2022/03/17 08:35:06;;;;;;;;;;;22.30;33.70;;;;;;5039149;28;19932;-55
2022/03/17 08:37:37;;;;;;;;;;;22.40;33.70;;;;;;5037871;28;20327;-55
2022/03/17 08:40:03;;;;;;;;;;;22.40;33.50;;;;;;5038517;28;20325;-61
2022/03/17 08:42:29;;;;;;;;;;;22.50;33.50;;;;;;5056227;28;19909;-58
2022/03/17 08:44:55;;;;;;;;;;;22.60;33.40;;;;;;5043632;28;19959;-58
2022/03/17 08:50:05;;;;;;;;;;;22.60;33.20;;;;;;5039913;28;20355;-59
2022/03/17 08:52:31;;;;;;;;;;;22.70;33.10;;;;;;5057002;28;19913;-58
2022/03/17 08:54:58;;;;;;;;;;;22.70;33.00;;;;;;5039435;28;19909;-59
2022/03/17 08:57:23;;;;;;;;;;;22.70;33.00;;;;;;5054041;28;19955;-57
2022/03/17 08:59:49;;;;;;;;;;;22.80;33.00;;;;;;5050933;28;19960;-57
2022/03/17 09:02:15;;;;;;;;;;;22.90;32.90;;;;;;5051675;28;19921;-57
2022/03/17 09:04:41;;;;;;;;;;;22.90;32.80;;;;;;5055397;28;20004;-60
2022/03/17 09:07:06;;;;;;;;;;;22.90;32.70;;;;;;5055407;28;19952;-54
2022/03/17 09:09:34;;;;;;;;;;;23.00;32.70;;;;;;5056443;28;19946;-58
2022/03/17 09:12:04;;;;;;;;;;;23.00;32.60;;;;;;5056092;28;19978;-58
2022/03/17 09:14:31;;;;;;;;;;;23.00;32.50;;;;;;5057528;28;20302;-58
2022/03/17 09:16:57;;;;;;;;;;;23.00;32.50;;;;;;5056429;28;19953;-59
2022/03/17 09:19:23;;;;;;;;;;;23.00;32.40;;;;;;5054115;28;19916;-57
2022/03/17 09:21:48;;;;;;;;;;;23.00;32.30;;;;;;5055838;28;19916;-59
2022/03/17 09:24:14;;;;;;;;;;;23.00;32.20;;;;;;5057149;28;19920;-58
2022/03/17 09:26:40;;;;;;;;;;;23.10;32.20;;;;;;5055267;28;20340;-60
2022/03/17 09:29:06;;;;;;;;;;;23.00;32.20;;;;;;5056647;28;20232;-56
2022/03/17 09:31:31;;;;;;;;;;;23.10;32.20;;;;;;5052559;28;19923;-57
2022/03/17 09:33:57;;;;;;;;;;;23.00;32.10;;;;;;5057220;28;20331;-56
2022/03/17 09:36:23;;;;;;;;;;;23.10;32.10;;;;;;5050067;28;19909;-57
2022/03/17 09:39:42;;;;;;;;;;;23.00;32.00;;;;;;5044266;28;19917;-54
2022/03/17 09:41:35;;;;;;;;;;;23.00;32.00;;;;;;5050789;28;19909;-59
2022/03/17 09:44:02;;;;;;;;;;;23.00;32.00;;;;;;5049444;28;21779;-56
2022/03/17 09:46:28;;;;;;;;;;;23.00;32.00;;;;;;5054280;28;19912;-60
2022/03/17 09:48:54;;;;;;;;;;;23.00;32.00;;;;;;5044178;28;20231;-57
2022/03/17 09:51:22;;;;;;;;;;;23.00;31.90;;;;;;5054261;28;19912;-59
2022/03/17 09:53:47;;;;;;;;;;;23.00;31.90;;;;;;5056191;28;19909;-59
2022/03/17 09:56:13;;;;;;;;;;;22.90;31.90;;;;;;5051963;28;19942;-57
2022/03/17 09:58:39;;;;;;;;;;;22.90;31.90;;;;;;5045412;28;19917;-58
2022/03/17 10:01:06;;;;;;;;;;;22.90;31.90;;;;;;5039805;28;19909;-57
2022/03/17 10:03:34;;;;;;;;;;;22.90;31.90;;;;;;5049271;28;19912;-60
2022/03/17 10:06:02;;;;;;;;;;;22.90;31.90;;;;;;5055855;28;19999;-57
2022/03/17 10:08:29;;;;;;;;;;;22.90;31.90;;;;;;5054048;28;20347;-58
2022/03/17 10:10:54;;;;;;;;;;;22.90;31.90;;;;;;5053604;28;19932;-54
2022/03/17 10:13:25;;;;;;;;;;;22.90;31.90;;;;;;5055179;28;19908;-57
2022/03/17 10:16:07;;;;;;;;;;;22.80;31.90;;;;;;5053220;28;20308;-57
2022/03/17 10:18:36;;;;;;;;;;;22.80;31.90;;;;;;5039535;28;20447;-53
2022/03/17 10:21:14;;;;;;;;;;;22.80;31.90;;;;;;5052771;28;19916;-55
2022/03/17 10:23:50;;;;;;;;;;;22.70;31.90;;;;;;5035759;28;19916;-57
2022/03/17 10:26:35;;;;;;;;;;;22.80;32.00;;;;;;5047292;28;19948;-54
2022/03/17 10:29:05;;;;;;;;;;;22.70;31.90;;;;;;5034131;28;19978;-55
2022/03/17 10:31:31;;;;;;;;;;;22.70;31.90;;;;;;5048281;28;19912;-55
2022/03/17 10:33:57;;;;;;;;;;;22.70;31.90;;;;;;5055669;28;19909;-54
2022/03/17 10:36:22;;;;;;;;;;;22.70;31.90;;;;;;5052314;28;19908;-55
2022/03/17 10:38:51;;;;;;;;;;;22.60;31.80;;;;;;5045594;28;20320;-58
2022/03/17 10:41:17;;;;;;;;;;;22.60;31.80;;;;;;5051997;28;19916;-58
2022/03/17 10:43:43;;;;;;;;;;;22.60;31.80;;;;;;5055380;28;19921;-55
2022/03/17 10:46:15;;;;;;;;;;;22.60;31.70;;;;;;5050171;28;19909;-62
2022/03/17 10:49:00;;;;;;;;;;;22.60;31.80;;;;;;5052388;28;20328;-63
2022/03/17 10:51:34;;;;;;;;;;;22.50;31.70;;;;;;5036440;28;19913;-60
2022/03/17 10:54:08;;;;;;;;;;;22.50;31.70;;;;;;5036684;28;20000;-64
2022/03/17 10:56:35;;;;;;;;;;;22.50;31.80;;;;;;5053210;28;19909;-61
2022/03/17 10:59:00;;;;;;;;;;;22.40;31.80;;;;;;5045587;28;19928;-56
2022/03/17 11:01:39;;;;;;;;;;;22.40;31.80;;;;;;5037850;28;19908;-57
2022/03/17 11:04:06;;;;;;;;;;;22.50;31.90;;;;;;5052250;28;20002;-55
2022/03/17 11:06:34;;;;;;;;;;;22.40;31.90;;;;;;5054408;28;19912;-56
2022/03/17 11:09:03;;;;;;;;;;;22.40;31.90;;;;;;5054776;28;19912;-58
2022/03/17 11:11:29;;;;;;;;;;;22.40;31.90;;;;;;5038454;28;19927;-58
2022/03/17 11:13:56;;;;;;;;;;;22.30;31.90;;;;;;5039793;28;19913;-52
2022/03/17 11:16:24;;;;;;;;;;;22.30;31.90;;;;;;5055008;28;20201;-56
2022/03/17 11:18:50;;;;;;;;;;;22.30;31.90;;;;;;5048461;28;20024;-57
2022/03/17 11:21:17;;;;;;;;;;;22.30;31.90;;;;;;5055296;28;20362;-58
2022/03/17 11:23:56;;;;;;;;;;;22.30;31.90;;;;;;5052668;28;19916;-57
2022/03/17 11:26:43;;;;;;;;;;;22.20;31.80;;;;;;5046550;28;19916;-50
2022/03/17 11:29:13;;;;;;;;;;;22.20;31.80;;;;;;5056869;28;19940;-56
2022/03/17 11:31:58;;;;;;;;;;;22.20;31.80;;;;;;5056845;28;19913;-52
2022/03/17 11:34:46;;;;;;;;;;;22.20;31.90;;;;;;5056758;28;19963;-52
2022/03/17 11:37:18;;;;;;;;;;;22.20;31.80;;;;;;5053816;28;20058;-51
2022/03/17 11:39:52;;;;;;;;;;;22.20;31.80;;;;;;5053086;28;19908;-56
2022/03/17 11:42:36;;;;;;;;;;;22.10;31.80;;;;;;5053615;28;19909;-53
2022/03/17 11:45:02;;;;;;;;;;;22.20;31.80;;;;;;5053802;28;20413;-52
2022/03/17 11:47:28;;;;;;;;;;;22.10;31.80;;;;;;5056151;28;19916;-56
2022/03/17 11:49:53;;;;;;;;;;;22.10;31.80;;;;;;5053471;28;19973;-57
2022/03/17 11:52:19;;;;;;;;;;;22.10;31.80;;;;;;5038349;28;19908;-54
2022/03/17 11:54:45;;;;;;;;;;;22.10;31.80;;;;;;5056629;28;19919;-52
2022/03/17 11:57:10;;;;;;;;;;;22.10;31.80;;;;;;5053021;28;19920;-53
2022/03/17 11:59:54;;;;;;;;;;;22.10;31.80;;;;;;5055863;28;20342;-54
2022/03/17 12:02:27;;;;;;;;;;;22.10;31.70;;;;;;5054553;28;19919;-54
2022/03/17 12:04:53;;;;;;;;;;;22.10;31.70;;;;;;5055833;28;20352;-55
2022/03/17 12:07:20;;;;;;;;;;;22.10;31.70;;;;;;5054006;28;20009;-56
2022/03/17 12:09:46;;;;;;;;;;;22.10;31.70;;;;;;5054530;28;20362;-56
2022/03/17 12:12:18;;;;;;;;;;;22.10;31.70;;;;;;5054819;28;19956;-58
2022/03/17 12:14:52;;;;;;;;;;;22.10;31.70;;;;;;5056121;28;19919;-54
2022/03/17 12:17:19;;;;;;;;;;;22.00;31.60;;;;;;5056728;28;20375;-56
2022/03/17 12:23:49;;;;;;;2.03;0.55;;;22.50;37.40;;;;;;5046701;28;20391;-51
2022/03/17 12:26:23;;;;;;;1.63;0.65;;;22.30;35.70;;;;;;5028735;28;20029;-55
2022/03/17 12:28:49;;;;;;;1.38;0.40;;;22.20;34.80;;;;;;5028869;28;20457;-53
2022/03/17 12:31:16;;;;;;;1.10;0.40;;;22.20;34.30;;;;;;5027571;28;20048;-55
2022/03/17 12:33:46;;;;;;;0.50;0.30;;;22.30;34.00;;;;;;5038903;28;20018;-51
2022/03/17 12:36:14;;;;;;;0.88;0.50;;;22.30;33.70;;;;;;5026408;28;20068;-55
2022/03/17 12:38:40;;;;;;;1.10;0.52;;;22.30;33.50;;;;;;5026400;28;20075;-54
2022/03/17 12:41:15;;;;;;;1.30;0.45;;;22.30;33.30;;;;;;5031217;28;20429;-50
2022/03/17 12:43:41;;;;;;;1.60;0.50;;;22.30;33.10;;;;;;5030660;28;20036;-53
2022/03/17 12:46:08;;;;;;;0.95;0.35;;;22.30;33.00;;;;;;5030950;28;20051;-52
2022/03/17 12:48:35;;;;;;;0.50;0.38;;;22.30;32.90;;;;;;5030993;28;20117;-55
2022/03/17 12:51:11;;;;;;;0.88;0.40;;;22.30;32.80;;;;;;5045451;28;20040;-56
2022/03/17 12:53:40;;;;;;;1.73;0.70;;;22.30;32.60;;;;;;5028364;28;20461;-57
2022/03/17 12:56:06;;;;;;;0.98;0.45;;;22.30;32.50;;;;;;5030823;28;20014;-57
2022/03/17 12:58:42;;;;;;;1.05;0.40;;;22.30;32.40;;;;;;5030746;28;20037;-55
2022/03/17 13:01:14;;;;;;;1.25;0.30;;;22.30;32.20;;;;;;5029136;28;20107;-51
2022/03/17 13:03:43;;;;;;;0.50;0.25;;;22.30;32.10;;;;;;5030757;28;20136;-54
2022/03/17 13:08:55;;;;;;;0.40;0.30;;;22.30;31.90;;;;;;5030568;28;20034;-52
2022/03/17 13:14:21;;;;;;;;;;;22.30;31.60;;;;;;5031007;28;20460;-50
2022/03/17 13:17:05;;;;;;;0.30;0.10;;;22.30;31.70;;;;;;5030183;28;19916;-52
2022/03/17 13:19:43;;;;;;;1.13;0.38;;;22.30;31.60;;;;;;5030381;28;20080;-54
2022/03/17 13:22:10;;;;;;;1.10;0.50;;;22.20;31.40;;;;;;5035427;28;20049;-53
2022/03/17 13:24:37;;;;;;;0.98;0.32;;;22.20;31.30;;;;;;5049174;28;20040;-57
2022/03/17 13:27:04;;;;;;;1.05;0.38;;;22.30;31.20;;;;;;5049341;28;20083;-55
2022/03/17 13:29:35;;;;;;;1.42;0.65;;;22.30;31.20;;;;;;5049209;28;20025;-56
2022/03/17 13:32:04;;;;;;;3.17;0.47;;;22.30;31.10;;;;;;5049587;28;20082;-54
2022/03/17 13:34:36;;;;;;;0.88;0.25;;;22.30;31.00;;;;;;5038248;28;20035;-53
2022/03/17 13:37:14;;;;;;;0.30;0.10;;;22.30;30.90;;;;;;5035401;28;20026;-51
2022/03/17 13:39:39;;;;;;;0.80;0.40;;;22.20;30.70;;;;;;5036214;28;20029;-55
2022/03/17 13:42:13;;;;;;;1.08;0.38;;;22.20;30.70;;;;;;5038102;28;20040;-55
2022/03/17 13:44:54;;;;;;;0.38;0.20;;;22.20;30.60;;;;;;5024022;28;20095;-51
2022/03/17 13:47:25;;;;;;;0.38;0.20;;;22.20;30.50;;;;;;5036436;28;20176;-55
2022/03/17 13:50:15;;;;;;;0.50;0.30;;;22.20;30.50;;;;;;5033835;28;20100;-56
2022/03/17 13:52:43;;;;;;;1.23;0.40;;;22.30;30.70;;;;;;5030840;28;20034;-57
2022/03/17 13:55:16;;;;;;;1.17;0.45;;;22.30;31.00;;;;;;5029242;28;20024;-54
2022/03/17 13:57:43;;;;;;;0.82;0.40;;;22.30;31.10;;;;;;5036458;28;20038;-50
2022/03/17 14:00:32;;;;;;;1.85;0.30;;;22.30;31.30;;;;;;5034033;28;20033;-49
2022/03/17 14:03:14;;;;;;;0.52;0.32;;;22.40;31.50;;;;;;5032976;28;20025;-48
2022/03/17 14:06:03;;;;;;;0.63;0.40;;;22.40;31.50;;;;;;5018364;28;20116;-46
2022/03/17 14:08:29;;;;;;;1.40;0.50;;;22.50;31.60;;;;;;5035322;28;20039;-45
2022/03/17 14:10:56;;;;;;;5.30;0.40;;;22.50;31.60;;;;;;5021974;28;20033;-48
2022/03/17 14:13:24;;;;;;;0.52;0.30;;;22.60;31.70;;;;;;5034964;28;20096;-52
2022/03/17 14:15:51;;;;;;;1.00;0.30;;;22.60;31.70;;;;;;5035862;28;20028;-50
2022/03/17 14:18:21;;;;;;;2.08;0.30;;;22.60;31.70;;;;;;5035852;28;20425;-48
2022/03/17 14:20:47;;;;;;;0.82;0.40;;;22.60;31.70;;;;;;5035984;28;20044;-48
2022/03/17 14:25:57;;;;;;;0.65;0.40;;;22.70;31.60;;;;;;5029435;28;20063;-47
2022/03/17 14:28:23;;;;;;;1.77;0.30;;;22.70;31.60;;;;;;5036239;28;20108;-51
2022/03/17 14:30:50;;;;;;;1.08;0.30;;;22.70;31.60;;;;;;5035552;28;20036;-49